Time;durP1;ratioP1;P1;durP2;ratioP2;P2;SDS_P1;SDS_P2;PMS_P1;PMS_P2;Temp;Humidity;BMP_temperature;BMP_pressure;BME280_temperature;BME280_humidity;BME280_pressure;Samples;Min_cycle;Max_cycle;Signal;HPM_P1;HPM_P2
2021/07/26 00:01:13;;;;;;;6.63;4.97;;;;;;;;;;5099991;28;20007;-92
2021/07/26 00:03:38;;;;;;;6.18;4.30;;;;;;;;;;5098353;28;20031;-93
2021/07/26 00:06:04;;;;;;;5.63;4.07;;;;;;;;;;5098756;28;20024;-92
2021/07/26 00:08:32;;;;;;;7.03;4.18;;;;;;;;;;5098765;28;20020;-92
2021/07/26 00:11:02;;;;;;;7.57;4.18;;;;;;;;;;5116437;28;20057;-92
2021/07/26 00:13:28;;;;;;;8.45;4.80;;;;;;;;;;5100455;28;20012;-89
2021/07/26 00:15:57;;;;;;;6.60;4.63;;;;;;;;;;5101698;27;20061;-89
2021/07/26 00:18:22;;;;;;;10.85;4.70;;;;;;;;;;5102694;28;20020;-91
2021/07/26 00:20:48;;;;;;;8.45;4.68;;;;;;;;;;5100027;28;20020;-93
2021/07/26 00:23:13;;;;;;;7.53;4.70;;;;;;;;;;5099723;28;20024;-92
2021/07/26 00:25:39;;;;;;;8.35;4.60;;;;;;;;;;5099180;28;20032;-92
2021/07/26 00:28:05;;;;;;;9.13;4.72;;;;;;;;;;5099128;28;20088;-92
2021/07/26 00:30:30;;;;;;;8.32;4.90;;;;;;;;;;5098246;28;20024;-92
2021/07/26 00:32:56;;;;;;;9.25;4.88;;;;;;;;;;5117943;28;20514;-93
2021/07/26 00:35:21;;;;;;;10.45;4.60;;;;;;;;;;5100084;28;20024;-91
2021/07/26 00:37:46;;;;;;;6.35;4.68;;;;;;;;;;5116157;28;20020;-91
2021/07/26 00:40:12;;;;;;;9.23;5.28;;;;;;;;;;5098310;28;20027;-91
2021/07/26 00:42:37;;;;;;;11.07;5.53;;;;;;;;;;5098640;28;20020;-92
2021/07/26 00:45:04;;;;;;;9.35;5.30;;;;;;;;;;5098760;28;20024;-92
2021/07/26 00:47:30;;;;;;;7.50;5.10;;;;;;;;;;5096676;28;20092;-92
2021/07/26 00:49:56;;;;;;;7.50;5.07;;;;;;;;;;5097899;28;20012;-92
2021/07/26 00:52:22;;;;;;;6.28;4.68;;;;;;;;;;5116932;28;20024;-91
2021/07/26 00:54:47;;;;;;;7.45;5.57;;;;;;;;;;5099243;28;20024;-90
2021/07/26 00:57:13;;;;;;;6.50;5.10;;;;;;;;;;5099517;28;20148;-92
2021/07/26 00:59:39;;;;;;;7.13;5.10;;;;;;;;;;5098804;28;20036;-92
2021/07/26 01:02:05;;;;;;;8.73;5.32;;;;;;;;;;5099577;28;20028;-92
2021/07/26 01:04:30;;;;;;;8.80;4.97;;;;;;;;;;5099732;28;20039;-91
2021/07/26 01:06:56;;;;;;;9.20;5.30;;;;;;;;;;5098852;28;20028;-92
2021/07/26 01:09:22;;;;;;;10.15;5.20;;;;;;;;;;5096999;28;20038;-93
2021/07/26 01:11:48;;;;;;;5.25;4.57;;;;;;;;;;5115596;28;20060;-92
2021/07/26 01:14:17;;;;;;;9.52;5.18;;;;;;;;;;5096598;28;20100;-91
2021/07/26 01:16:44;;;;;;;7.63;5.55;;;;;;;;;;5096907;28;20057;-92
2021/07/26 01:19:10;;;;;;;7.88;5.10;;;;;;;;;;5096132;28;20031;-92
2021/07/26 01:21:35;;;;;;;7.60;5.55;;;;;;;;;;5097303;28;20020;-91
2021/07/26 01:24:02;;;;;;;6.60;4.88;;;;;;;;;;5116118;28;20034;-91
2021/07/26 01:26:29;;;;;;;8.43;5.03;;;;;;;;;;5101576;28;20004;-92
2021/07/26 01:29:01;;;;;;;6.15;4.97;;;;;;;;;;5100749;28;20012;-92
2021/07/26 01:31:27;;;;;;;6.35;4.97;;;;;;;;;;5099155;28;20032;-92
2021/07/26 01:33:53;;;;;;;8.70;5.30;;;;;;;;;;5097782;28;20028;-92
2021/07/26 01:36:19;;;;;;;7.35;4.85;;;;;;;;;;5097389;28;20027;-92
2021/07/26 01:38:45;;;;;;;6.90;5.15;;;;;;;;;;5098617;28;20024;-92
2021/07/26 01:41:17;;;;;;;8.18;4.38;;;;;;;;;;5097956;28;20031;-92
2021/07/26 01:44:02;;;;;;;7.28;4.97;;;;;;;;;;5098267;28;20058;-93
2021/07/26 01:46:58;;;;;;;8.60;4.95;;;;;;;;;;5098937;28;20020;-92
2021/07/26 01:49:29;;;;;;;11.73;4.70;;;;;;;;;;5097148;28;20004;-93
2021/07/26 01:51:55;;;;;;;12.20;5.00;;;;;;;;;;5097796;28;20004;-92
2021/07/26 01:54:20;;;;;;;8.57;4.47;;;;;;;;;;5097749;28;20016;-91
2021/07/26 01:56:46;;;;;;;8.07;4.95;;;;;;;;;;5097791;28;20016;-92
2021/07/26 01:59:11;;;;;;;6.57;4.53;;;;;;;;;;5114776;28;20035;-91
2021/07/26 02:01:37;;;;;;;7.78;5.35;;;;;;;;;;5097477;28;20028;-91
2021/07/26 02:04:02;;;;;;;9.93;5.25;;;;;;;;;;5099645;28;20043;-89
2021/07/26 02:06:27;;;;;;;7.70;4.90;;;;;;;;;;5101511;28;20008;-89
2021/07/26 02:08:53;;;;;;;7.05;5.10;;;;;;;;;;5100847;28;20046;-91
2021/07/26 02:11:21;;;;;;;9.82;5.10;;;;;;;;;;5099938;28;20051;-92
2021/07/26 02:13:53;;;;;;;8.50;4.28;;;;;;;;;;5098900;28;20027;-92
2021/07/26 02:16:20;;;;;;;7.38;5.22;;;;;;;;;;5116545;28;20020;-92
2021/07/26 02:18:45;;;;;;;7.47;4.80;;;;;;;;;;5098598;28;20008;-92
2021/07/26 02:21:11;;;;;;;12.57;5.18;;;;;;;;;;5099640;28;20008;-92
2021/07/26 02:23:36;;;;;;;7.97;5.72;;;;;;;;;;5119101;28;20039;-92
2021/07/26 02:26:02;;;;;;;8.52;5.40;;;;;;;;;;5103134;28;20046;-91
2021/07/26 02:28:28;;;;;;;10.75;5.35;;;;;;;;;;5102439;28;20483;-92
2021/07/26 02:30:53;;;;;;;10.93;5.07;;;;;;;;;;5119664;28;20072;-91
2021/07/26 02:33:18;;;;;;;11.13;5.35;;;;;;;;;;5102952;28;20126;-91
2021/07/26 02:35:43;;;;;;;11.25;5.00;;;;;;;;;;5102767;28;20011;-92
2021/07/26 02:38:09;;;;;;;8.80;5.20;;;;;;;;;;5103219;28;20034;-92
2021/07/26 02:40:35;;;;;;;6.50;4.75;;;;;;;;;;5102097;28;20077;-92
2021/07/26 02:43:00;;;;;;;8.18;4.93;;;;;;;;;;5101193;28;20028;-92
2021/07/26 02:45:26;;;;;;;10.02;5.18;;;;;;;;;;5100198;28;20028;-92
2021/07/26 02:47:52;;;;;;;7.28;5.05;;;;;;;;;;5099336;28;20031;-92
2021/07/26 02:50:19;;;;;;;15.68;5.57;;;;;;;;;;5117354;28;20027;-91
2021/07/26 02:52:44;;;;;;;6.40;5.13;;;;;;;;;;5099819;28;20011;-91
2021/07/26 02:55:10;;;;;;;8.43;5.72;;;;;;;;;;5100299;28;20024;-91
2021/07/26 02:57:36;;;;;;;9.13;5.35;;;;;;;;;;5118473;28;20020;-92
2021/07/26 03:00:03;;;;;;;10.73;5.60;;;;;;;;;;5118131;28;20034;-91
2021/07/26 03:02:29;;;;;;;8.82;6.10;;;;;;;;;;5102489;28;20096;-93
2021/07/26 03:04:56;;;;;;;8.27;5.85;;;;;;;;;;5100684;28;20028;-92
2021/07/26 03:07:22;;;;;;;10.07;5.82;;;;;;;;;;5100339;28;20065;-93
2021/07/26 03:09:47;;;;;;;15.77;6.10;;;;;;;;;;5118598;28;20008;-93
2021/07/26 03:12:12;;;;;;;10.35;6.10;;;;;;;;;;5119687;28;20023;-91
2021/07/26 03:14:38;;;;;;;13.27;6.70;;;;;;;;;;5101856;28;20024;-92
2021/07/26 03:17:04;;;;;;;9.07;5.78;;;;;;;;;;5102478;28;20012;-92
2021/07/26 03:19:30;;;;;;;11.60;6.13;;;;;;;;;;5118084;28;20034;-91
2021/07/26 03:22:29;;;;;;;7.60;5.15;;;;;;;;;;5099920;28;20054;-93
2021/07/26 03:24:54;;;;;;;8.90;5.80;;;;;;;;;;5099268;28;20031;-92
2021/07/26 03:27:19;;;;;;;9.18;6.20;;;;;;;;;;5117808;28;20426;-93
2021/07/26 03:29:45;;;;;;;11.02;5.65;;;;;;;;;;5101727;28;20032;-92
2021/07/26 03:32:10;;;;;;;10.57;5.95;;;;;;;;;;5100375;28;20085;-92
2021/07/26 03:34:35;;;;;;;10.38;5.95;;;;;;;;;;5100027;28;20024;-92
2021/07/26 03:37:01;;;;;;;8.82;5.88;;;;;;;;;;5101117;28;20020;-92
2021/07/26 03:39:26;;;;;;;8.38;6.10;;;;;;;;;;5101579;28;20024;-91
2021/07/26 03:41:57;;;;;;;15.30;6.53;;;;;;;;;;5100302;28;20024;-93
2021/07/26 03:44:23;;;;;;;10.32;5.82;;;;;;;;;;5118182;28;20027;-92
2021/07/26 03:46:48;;;;;;;13.80;6.32;;;;;;;;;;5099749;28;20057;-92
2021/07/26 03:49:14;;;;;;;10.75;5.95;;;;;;;;;;5103193;28;20019;-89
2021/07/26 03:51:39;;;;;;;12.73;6.00;;;;;;;;;;5103260;28;20016;-90
2021/07/26 03:54:04;;;;;;;14.38;6.10;;;;;;;;;;5120600;28;20012;-90
2021/07/26 03:56:29;;;;;;;12.57;6.30;;;;;;;;;;5120302;28;20008;-91
2021/07/26 03:58:55;;;;;;;13.38;6.25;;;;;;;;;;5098533;28;20046;-92
2021/07/26 04:01:21;;;;;;;9.05;5.95;;;;;;;;;;5097264;28;20039;-93
2021/07/26 04:03:46;;;;;;;11.10;6.28;;;;;;;;;;5098608;28;20035;-92
2021/07/26 04:06:14;;;;;;;13.60;6.20;;;;;;;;;;5097698;28;20043;-93
2021/07/26 04:08:42;;;;;;;12.57;6.18;;;;;;;;;;5097697;28;20016;-93
2021/07/26 04:11:17;;;;;;;10.45;5.82;;;;;;;;;;5115587;28;20020;-92
2021/07/26 04:13:42;;;;;;;12.50;6.07;;;;;;;;;;5113874;28;20024;-92
2021/07/26 04:16:08;;;;;;;13.93;6.70;;;;;;;;;;5095455;28;20032;-92
2021/07/26 04:18:34;;;;;;;14.85;6.53;;;;;;;;;;5097406;28;20044;-92
2021/07/26 04:21:08;;;;;;;12.95;5.40;;;;;;;;;;5097308;28;20054;-92
2021/07/26 04:23:33;;;;;;;19.85;6.10;;;;;;;;;;5096629;28;20066;-92
2021/07/26 04:25:59;;;;;;;15.65;7.13;;;;;;;;;;5113962;28;20028;-92
2021/07/26 04:28:24;;;;;;;15.23;6.15;;;;;;;;;;5097941;28;20054;-92
2021/07/26 04:30:50;;;;;;;10.23;5.75;;;;;;;;;;5115463;28;20028;-92
2021/07/26 04:33:15;;;;;;;9.25;5.50;;;;;;;;;;5115840;28;20058;-92
2021/07/26 04:35:40;;;;;;;10.00;5.90;;;;;;;;;;5096622;28;20032;-91
2021/07/26 04:38:06;;;;;;;14.35;6.35;;;;;;;;;;5096698;28;20470;-91
2021/07/26 04:40:31;;;;;;;12.93;5.45;;;;;;;;;;5096237;28;20024;-92
2021/07/26 04:42:56;;;;;;;12.65;5.28;;;;;;;;;;5114214;28;20024;-92
2021/07/26 04:45:22;;;;;;;12.80;5.22;;;;;;;;;;5095143;28;20028;-92
2021/07/26 04:47:47;;;;;;;8.68;5.50;;;;;;;;;;5114345;28;20041;-91
2021/07/26 04:50:13;;;;;;;7.57;5.20;;;;;;;;;;5096930;28;20463;-91
2021/07/26 04:52:38;;;;;;;9.43;5.45;;;;;;;;;;5096986;28;20020;-92
2021/07/26 04:55:05;;;;;;;9.88;5.78;;;;;;;;;;5101689;28;20008;-92
2021/07/26 04:57:30;;;;;;;9.38;5.35;;;;;;;;;;5098635;28;20035;-91
2021/07/26 04:59:55;;;;;;;9.55;5.18;;;;;;;;;;5096338;28;20020;-92
2021/07/26 05:02:21;;;;;;;6.65;5.30;;;;;;;;;;5096973;28;20027;-92
2021/07/26 05:04:46;;;;;;;13.18;5.78;;;;;;;;;;5094980;28;20034;-92
2021/07/26 05:07:11;;;;;;;14.38;6.47;;;;;;;;;;5096632;28;20039;-91
2021/07/26 05:09:38;;;;;;;10.05;5.18;;;;;;;;;;5113570;28;20075;-91
2021/07/26 05:12:13;;;;;;;16.85;6.20;;;;;;;;;;5112994;28;20026;-91
2021/07/26 05:14:42;;;;;;;11.48;5.10;;;;;;;;;;5096181;28;20091;-91
2021/07/26 05:17:08;;;;;;;8.35;4.95;;;;;;;;;;5096612;28;20000;-91
2021/07/26 05:19:34;;;;;;;6.50;5.13;;;;;;;;;;5098504;28;20024;-91
2021/07/26 05:21:59;;;;;;;8.40;5.18;;;;;;;;;;5098059;28;20058;-92
2021/07/26 05:24:24;;;;;;;8.18;5.85;;;;;;;;;;5097444;28;20028;-92
2021/07/26 05:27:01;;;;;;;14.15;5.53;;;;;;;;;;5115362;28;20011;-91
2021/07/26 05:29:27;;;;;;;8.57;5.50;;;;;;;;;;5100252;28;20046;-92
2021/07/26 05:31:53;;;;;;;9.02;5.53;;;;;;;;;;5117492;28;20024;-93
2021/07/26 05:34:21;;;;;;;12.40;5.63;;;;;;;;;;5100320;28;20024;-92
2021/07/26 05:36:47;;;;;;;13.00;5.35;;;;;;;;;;5099958;28;20024;-93
2021/07/26 05:39:12;;;;;;;8.23;5.40;;;;;;;;;;5099984;28;20062;-93
2021/07/26 05:41:37;;;;;;;11.88;5.45;;;;;;;;;;5118805;28;20008;-91
2021/07/26 05:44:03;;;;;;;8.32;5.38;;;;;;;;;;5100507;28;20032;-92
2021/07/26 05:46:28;;;;;;;10.60;5.32;;;;;;;;;;5097408;28;20019;-92
2021/07/26 05:48:54;;;;;;;25.25;6.30;;;;;;;;;;5115634;28;20020;-92
2021/07/26 05:51:19;;;;;;;10.15;6.03;;;;;;;;;;5097849;28;20399;-92
2021/07/26 05:53:44;;;;;;;11.38;5.97;;;;;;;;;;5097008;28;20024;-91
2021/07/26 05:56:12;;;;;;;8.57;5.53;;;;;;;;;;5117227;28;20108;-92
2021/07/26 05:58:42;;;;;;;8.23;5.40;;;;;;;;;;5117810;28;20024;-92
2021/07/26 06:01:22;;;;;;;9.32;5.90;;;;;;;;;;5116866;28;20087;-92
2021/07/26 06:03:49;;;;;;;9.40;5.68;;;;;;;;;;5099716;28;20020;-92
2021/07/26 06:06:15;;;;;;;7.95;5.53;;;;;;;;;;5099959;28;20012;-92
2021/07/26 06:08:41;;;;;;;11.63;5.95;;;;;;;;;;5117942;28;20031;-92
2021/07/26 06:11:06;;;;;;;13.27;6.50;;;;;;;;;;5101934;28;20012;-90
2021/07/26 06:13:32;;;;;;;8.73;5.97;;;;;;;;;;5104957;28;20016;-90
2021/07/26 06:15:58;;;;;;;10.88;6.25;;;;;;;;;;5121691;28;20054;-92
2021/07/26 06:18:23;;;;;;;10.95;5.60;;;;;;;;;;5099340;28;20115;-92
2021/07/26 06:20:49;;;;;;;12.63;6.10;;;;;;;;;;5100816;28;20028;-92
2021/07/26 06:23:14;;;;;;;8.27;5.53;;;;;;;;;;5118162;28;20024;-93
2021/07/26 06:25:40;;;;;;;11.93;5.68;;;;;;;;;;5100996;28;20008;-93
2021/07/26 06:28:06;;;;;;;9.27;5.50;;;;;;;;;;5119071;28;20052;-92
2021/07/26 06:30:31;;;;;;;12.60;6.10;;;;;;;;;;5100879;28;20486;-92
2021/07/26 06:32:56;;;;;;;9.68;4.97;;;;;;;;;;5101385;28;20039;-92
2021/07/26 06:35:22;;;;;;;8.45;5.80;;;;;;;;;;5099976;28;20043;-92
2021/07/26 06:37:48;;;;;;;8.02;5.35;;;;;;;;;;5101804;28;20022;-92
2021/07/26 06:40:15;;;;;;;9.25;5.20;;;;;;;;;;5099452;28;20049;-92
2021/07/26 06:42:41;;;;;;;7.35;5.10;;;;;;;;;;5099845;28;20069;-92
2021/07/26 06:45:07;;;;;;;14.05;5.75;;;;;;;;;;5098439;28;20084;-92
2021/07/26 06:47:33;;;;;;;14.20;5.38;;;;;;;;;;5101490;28;20100;-93
2021/07/26 06:49:59;;;;;;;9.02;5.22;;;;;;;;;;5101834;28;20055;-92
2021/07/26 06:52:24;;;;;;;8.18;4.80;;;;;;;;;;5099835;28;20035;-92
2021/07/26 06:54:50;;;;;;;10.25;5.05;;;;;;;;;;5096489;28;20024;-92
2021/07/26 06:57:15;;;;;;;8.00;5.10;;;;;;;;;;5112074;28;20034;-92
2021/07/26 06:59:40;;;;;;;6.53;4.88;;;;;;;;;;5114455;28;20031;-93
2021/07/26 07:02:06;;;;;;;6.75;4.70;;;;;;;;;;5095671;28;20049;-92
2021/07/26 07:04:31;;;;;;;6.85;4.75;;;;;;;;;;5098071;28;20016;-92
2021/07/26 07:06:56;;;;;;;7.38;4.38;;;;;;;;;;5096660;28;20119;-92
2021/07/26 07:09:22;;;;;;;11.77;4.50;;;;;;;;;;5096911;28;20035;-92
2021/07/26 07:11:47;;;;;;;9.60;4.80;;;;;;;;;;5096791;28;20032;-92
2021/07/26 07:14:12;;;;;;;6.93;3.90;;;;;;;;;;5114542;28;20032;-92
2021/07/26 07:16:38;;;;;;;7.38;4.60;;;;;;;;;;5096137;28;20020;-92
2021/07/26 07:19:03;;;;;;;9.05;4.63;;;;;;;;;;5113385;28;20024;-92
2021/07/26 07:21:31;;;;;;;5.78;4.07;;;;;;;;;;5112813;28;20059;-92
2021/07/26 07:24:02;;;;;;;7.10;3.88;;;;;;;;;;5095833;28;20091;-92
2021/07/26 07:26:29;;;;;;;7.35;4.20;;;;;;;;;;5098398;28;20079;-91
2021/07/26 07:28:55;;;;;;;8.35;4.03;;;;;;;;;;5103641;28;20016;-89
2021/07/26 07:31:26;;;;;;;6.82;3.90;;;;;;;;;;5094346;28;20028;-92
2021/07/26 07:33:53;;;;;;;8.63;4.60;;;;;;;;;;5094213;28;20032;-92
2021/07/26 07:36:20;;;;;;;9.15;3.60;;;;;;;;;;5101005;28;20012;-93
2021/07/26 07:38:45;;;;;;;8.63;4.25;;;;;;;;;;5101838;28;20047;-93
2021/07/26 07:41:11;;;;;;;8.23;3.92;;;;;;;;;;5095847;28;20024;-92
2021/07/26 07:43:36;;;;;;;7.47;3.95;;;;;;;;;;5100926;28;20065;-92
2021/07/26 07:46:03;;;;;;;8.88;4.15;;;;;;;;;;5097925;28;20032;-93
2021/07/26 07:48:29;;;;;;;8.40;3.60;;;;;;;;;;5097506;28;20031;-93
2021/07/26 07:50:55;;;;;;;5.00;3.50;;;;;;;;;;5098943;28;20032;-93
2021/07/26 07:53:22;;;;;;;6.82;4.15;;;;;;;;;;5097756;28;20063;-92
2021/07/26 07:55:48;;;;;;;7.38;3.60;;;;;;;;;;5096940;28;20092;-93
2021/07/26 07:58:13;;;;;;;5.47;3.92;;;;;;;;;;5096263;28;20031;-92
2021/07/26 08:00:39;;;;;;;5.68;3.75;;;;;;;;;;5096376;28;20037;-92
2021/07/26 08:03:04;;;;;;;6.70;3.95;;;;;;;;;;5094517;28;20011;-92
2021/07/26 08:05:30;;;;;;;6.20;3.63;;;;;;;;;;5095850;28;20099;-92
2021/07/26 08:07:57;;;;;;;7.38;3.60;;;;;;;;;;5097487;28;20028;-92
2021/07/26 08:10:23;;;;;;;6.53;3.75;;;;;;;;;;5114576;28;20024;-92
2021/07/26 08:12:48;;;;;;;7.72;3.40;;;;;;;;;;5092835;28;20024;-92
2021/07/26 08:15:14;;;;;;;6.10;3.60;;;;;;;;;;5108760;28;20106;-92
2021/07/26 08:17:44;;;;;;;5.63;3.65;;;;;;;;;;5111610;28;20024;-92
2021/07/26 08:20:11;;;;;;;8.35;3.83;;;;;;;;;;5090616;28;20021;-92
2021/07/26 08:22:37;;;;;;;8.07;3.83;;;;;;;;;;5087482;28;20519;-92
2021/07/26 08:25:04;;;;;;;7.38;3.65;;;;;;;;;;5097395;28;20020;-93
2021/07/26 08:27:30;;;;;;;9.43;3.75;;;;;;;;;;5110633;28;20086;-92
2021/07/26 08:29:56;;;;;;;7.68;3.92;;;;;;;;;;5092291;28;20043;-92
2021/07/26 08:32:21;;;;;;;4.82;3.60;;;;;;;;;;5089823;28;20087;-93
2021/07/26 08:34:47;;;;;;;8.18;3.65;;;;;;;;;;5118575;28;20043;-87
2021/07/26 08:37:12;;;;;;;4.85;3.28;;;;;;;;;;5102228;28;20020;-90
2021/07/26 08:39:38;;;;;;;5.20;3.05;;;;;;;;;;5097860;28;20051;-93
2021/07/26 08:42:05;;;;;;;6.35;3.22;;;;;;;;;;5108292;28;20028;-92
2021/07/26 08:44:33;;;;;;;7.72;3.10;;;;;;;;;;5105982;28;20028;-92
2021/07/26 08:47:03;;;;;;;6.68;2.80;;;;;;;;;;5089045;28;20030;-92
2021/07/26 08:49:31;;;;;;;3.75;2.47;;;;;;;;;;5087436;28;20019;-92
2021/07/26 08:51:58;;;;;;;5.35;2.50;;;;;;;;;;5108129;28;20024;-93
2021/07/26 08:54:27;;;;;;;5.30;2.88;;;;;;;;;;5088996;28;20020;-91
2021/07/26 08:56:53;;;;;;;4.80;2.80;;;;;;;;;;5107904;28;20024;-92
2021/07/26 08:59:18;;;;;;;3.00;2.13;;;;;;;;;;5105733;28;20020;-92
2021/07/26 09:01:46;;;;;;;5.30;2.50;;;;;;;;;;5085062;28;20038;-92
2021/07/26 09:04:12;;;;;;;3.42;2.50;;;;;;;;;;5087521;28;20030;-91
2021/07/26 09:06:37;;;;;;;4.05;2.47;;;;;;;;;;5104712;28;20511;-92
2021/07/26 09:09:02;;;;;;;3.67;2.65;;;;;;;;;;5107879;28;20024;-91
2021/07/26 09:11:45;;;;;;;5.97;3.35;;;;;;;;;;5106530;28;20509;-91
2021/07/26 09:14:30;;;;;;;4.18;2.60;;;;;;;;;;5095087;28;20016;-90
2021/07/26 09:16:56;;;;;;;3.90;2.35;;;;;;;;;;5101793;28;20034;-91
2021/07/26 09:19:21;;;;;;;5.05;2.50;;;;;;;;;;5107979;28;20028;-91
2021/07/26 09:21:51;;;;;;;8.55;2.70;;;;;;;;;;5107973;28;20035;-92
2021/07/26 09:24:27;;;;;;;3.22;2.17;;;;;;;;;;5085274;28;20050;-91
2021/07/26 09:26:54;;;;;;;4.90;2.20;;;;;;;;;;5084874;28;20024;-92
2021/07/26 09:29:30;;;;;;;4.97;2.08;;;;;;;;;;5084971;28;20555;-92
2021/07/26 09:32:00;;;;;;;8.60;2.67;;;;;;;;;;5090444;28;20012;-92
2021/07/26 09:34:25;;;;;;;2.50;2.08;;;;;;;;;;5087481;28;20030;-92
2021/07/26 09:36:51;;;;;;;3.97;2.40;;;;;;;;;;5093413;28;20115;-92
2021/07/26 09:39:30;;;;;;;5.63;2.10;;;;;;;;;;5089064;28;20031;-92
2021/07/26 09:41:58;;;;;;;4.32;2.30;;;;;;;;;;5088956;28;20024;-91
2021/07/26 09:44:26;;;;;;;4.63;2.33;;;;;;;;;;5088128;28;20081;-91
2021/07/26 09:46:53;;;;;;;3.95;2.08;;;;;;;;;;5088409;28;20115;-92
2021/07/26 09:49:20;;;;;;;5.07;1.98;;;;;;;;;;5091347;28;20027;-90
2021/07/26 09:52:09;;;;;;;2.40;1.85;;;;;;;;;;5087340;28;20052;-90
2021/07/26 09:54:46;;;;;;;3.75;2.13;;;;;;;;;;5097176;28;20396;-93
2021/07/26 09:57:24;;;;;;;5.57;1.80;;;;;;;;;;5106559;28;20031;-92
2021/07/26 09:59:51;;;;;;;2.63;1.73;;;;;;;;;;5091698;28;20035;-91
2021/07/26 10:02:18;;;;;;;6.75;2.13;;;;;;;;;;5093670;28;20024;-92
2021/07/26 10:04:45;;;;;;;5.40;2.15;;;;;;;;;;5093717;28;20020;-91
2021/07/26 10:07:13;;;;;;;3.38;1.90;;;;;;;;;;5094675;28;20020;-92
2021/07/26 10:09:40;;;;;;;4.57;1.45;;;;;;;;;;5114097;28;20004;-93
2021/07/26 10:12:07;;;;;;;3.28;2.30;;;;;;;;;;5099313;28;20020;-92
2021/07/26 10:14:33;;;;;;;5.07;2.33;;;;;;;;;;5110644;28;20034;-92
2021/07/26 10:17:00;;;;;;;3.90;1.80;;;;;;;;;;5112275;28;20048;-92
2021/07/26 10:19:26;;;;;;;2.97;2.00;;;;;;;;;;5097493;28;20016;-92
2021/07/26 10:21:59;;;;;;;3.20;1.80;;;;;;;;;;5095472;28;20564;-92
2021/07/26 10:24:33;;;;;;;3.88;2.05;;;;;;;;;;5088849;28;20119;-91
2021/07/26 10:27:00;;;;;;;2.80;1.95;;;;;;;;;;5088141;28;20051;-91
2021/07/26 10:29:54;;;;;;;2.92;2.13;;;;;;;;;;5092110;28;20019;-91
2021/07/26 10:32:29;;;;;;;2.97;2.40;;;;;;;;;;5093869;28;20042;-91
2021/07/26 10:34:57;;;;;;;2.53;1.92;;;;;;;;;;5095560;28;20024;-91
2021/07/26 10:37:41;;;;;;;2.15;1.90;;;;;;;;;;5098962;28;20016;-91
2021/07/26 10:40:30;;;;;;;3.80;2.55;;;;;;;;;;5102820;28;20044;-93
2021/07/26 10:43:03;;;;;;;2.83;2.30;;;;;;;;;;5120628;28;20039;-92
2021/07/26 10:45:31;;;;;;;5.25;2.17;;;;;;;;;;5096556;28;20035;-92
2021/07/26 10:48:22;;;;;;;3.05;2.22;;;;;;;;;;5094831;28;20095;-91
2021/07/26 10:50:52;;;;;;;2.33;2.10;;;;;;;;;;5120123;28;20012;-93
2021/07/26 10:53:32;;;;;;;3.90;2.45;;;;;;;;;;5119814;28;20084;-91
2021/07/26 10:56:11;;;;;;;3.30;2.60;;;;;;;;;;5104132;28;20015;-90
2021/07/26 10:58:39;;;;;;;4.18;2.63;;;;;;;;;;5104037;28;20079;-93
2021/07/26 11:01:20;;;;;;;2.53;2.25;;;;;;;;;;5099773;28;20085;-90
2021/07/26 11:03:46;;;;;;;4.68;2.40;;;;;;;;;;5103428;28;20038;-90
2021/07/26 11:06:31;;;;;;;3.90;2.58;;;;;;;;;;5102466;28;20016;-90
2021/07/26 11:08:56;;;;;;;3.92;2.33;;;;;;;;;;5095196;28;20028;-91
2021/07/26 11:11:40;;;;;;;3.22;2.35;;;;;;;;;;5114995;28;20032;-90
2021/07/26 11:14:05;;;;;;;5.30;3.50;;;;;;;;;;5098058;28;20016;-92
2021/07/26 11:16:56;;;;;;;5.05;2.60;;;;;;;;;;5093043;28;20043;-91
2021/07/26 11:19:40;;;;;;;2.97;2.22;;;;;;;;;;5092357;28;20038;-91
2021/07/26 11:22:15;;;;;;;8.25;2.72;;;;;;;;;;5089233;28;20024;-91
2021/07/26 11:24:40;;;;;;;3.53;2.40;;;;;;;;;;5094708;28;20019;-92
2021/07/26 11:27:09;;;;;;;3.03;2.05;;;;;;;;;;5089780;28;20479;-91
2021/07/26 11:29:34;;;;;;;4.80;2.15;;;;;;;;;;5109183;28;20012;-92
2021/07/26 11:32:00;;;;;;;7.93;2.30;;;;;;;;;;5090419;28;20045;-91
2021/07/26 11:34:35;;;;;;;3.30;2.00;;;;;;;;;;5091673;28;20032;-91
2021/07/26 11:37:08;;;;;;;5.15;2.30;;;;;;;;;;5110692;28;20008;-92
2021/07/26 11:39:43;;;;;;;4.22;2.50;;;;;;;;;;5092204;28;20035;-90
2021/07/26 11:42:09;;;;;;;4.82;2.50;;;;;;;;;;5097437;28;20032;-92
2021/07/26 11:44:35;;;;;;;3.20;2.58;;;;;;;;;;5098813;28;20032;-92
2021/07/26 11:47:01;;;;;;;2.80;2.22;;;;;;;;;;5098266;28;20028;-92
2021/07/26 11:49:27;;;;;;;8.68;2.33;;;;;;;;;;5095233;28;20023;-91
2021/07/26 11:52:07;;;;;;;11.15;2.80;;;;;;;;;;5098087;28;20008;-92
2021/07/26 11:54:33;;;;;;;5.00;2.60;;;;;;;;;;5114974;28;20028;-92
2021/07/26 11:57:10;;;;;;;3.85;2.33;;;;;;;;;;5094085;28;20020;-94
2021/07/26 11:59:36;;;;;;;3.90;2.65;;;;;;;;;;5095940;28;20042;-93
2021/07/26 12:02:14;;;;;;;4.50;2.63;;;;;;;;;;5099232;28;20026;-91
2021/07/26 12:04:40;;;;;;;2.88;2.30;;;;;;;;;;5101076;28;20019;-90
2021/07/26 12:07:09;;;;;;;4.28;2.75;;;;;;;;;;5154964;22;20023;-92
2021/07/26 12:09:35;;;;;;;3.53;2.20;;;;;;;;;;5123091;28;20083;-90
2021/07/26 12:12:14;;;;;;;4.53;3.10;;;;;;;;;;5119354;28;20085;-91
2021/07/26 12:14:41;;;;;;;6.80;3.15;;;;;;;;;;5118507;28;20023;-92
2021/07/26 12:17:13;;;;;;;6.35;3.40;;;;;;;;;;5129781;28;20038;-92
2021/07/26 12:19:40;;;;;;;6.15;2.88;;;;;;;;;;5113518;28;20038;-92
2021/07/26 12:22:21;;;;;;;4.70;2.53;;;;;;;;;;5106879;28;20104;-94
2021/07/26 12:24:58;;;;;;;2.90;2.15;;;;;;;;;;5107985;28;20041;-90
2021/07/26 12:27:26;;;;;;;2.92;2.42;;;;;;;;;;5125033;28;20049;-91
2021/07/26 12:29:58;;;;;;;2.78;2.33;;;;;;;;;;5111524;28;20475;-93
2021/07/26 12:32:24;;;;;;;7.05;2.30;;;;;;;;;;5127606;28;20028;-92
2021/07/26 12:35:12;;;;;;;4.00;2.55;;;;;;;;;;5115798;28;20134;-93
2021/07/26 12:37:38;;;;;;;5.15;2.60;;;;;;;;;;5111793;28;20084;-92
2021/07/26 12:40:14;;;;;;;4.53;2.65;;;;;;;;;;5123923;28;20028;-91
2021/07/26 12:42:40;;;;;;;7.05;2.75;;;;;;;;;;5125588;28;20015;-92
2021/07/26 12:45:22;;;;;;;4.18;2.35;;;;;;;;;;5099252;28;20075;-92
2021/07/26 12:47:48;;;;;;;6.03;2.65;;;;;;;;;;5126351;28;20421;-92
2021/07/26 12:50:13;;;;;;;2.65;2.33;;;;;;;;;;5120216;28;20000;-93
2021/07/26 12:52:38;;;;;;;4.72;2.40;;;;;;;;;;5122344;28;20035;-91
2021/07/26 12:55:04;;;;;;;5.55;2.50;;;;;;;;;;5115450;28;20034;-93
2021/07/26 12:57:30;;;;;;;5.10;2.38;;;;;;;;;;5117423;28;20024;-93
2021/07/26 12:59:55;;;;;;;2.53;2.20;;;;;;;;;;5117361;28;20524;-92
2021/07/26 13:02:20;;;;;;;4.10;2.65;;;;;;;;;;5110994;28;20019;-91
2021/07/26 13:04:46;;;;;;;5.18;2.70;;;;;;;;;;5112805;28;20491;-92
2021/07/26 13:07:14;;;;;;;5.80;2.80;;;;;;;;;;5113261;28;20069;-94
2021/07/26 13:09:39;;;;;;;3.75;2.80;;;;;;;;;;5114049;28;20027;-92
2021/07/26 13:12:05;;;;;;;6.47;3.40;;;;;;;;;;5135816;28;20028;-93
2021/07/26 13:14:30;;;;;;;4.50;3.20;;;;;;;;;;5140065;22;20048;-92
2021/07/26 13:16:55;;;;;;;8.18;3.40;;;;;;;;;;5079479;28;20040;-93
2021/07/26 13:19:21;;;;;;;4.03;2.42;;;;;;;;;;5081485;28;20019;-92
2021/07/26 13:21:46;;;;;;;2.88;2.50;;;;;;;;;;5080355;28;20035;-93
2021/07/26 13:24:11;;;;;;;3.95;3.35;;;;;;;;;;5072722;28;20036;-92
2021/07/26 13:26:37;;;;;;;3.25;2.95;;;;;;;;;;5072145;28;20033;-92
2021/07/26 13:29:04;;;;;;;3.50;3.08;;;;;;;;;;5069080;28;20017;-91
2021/07/26 13:31:31;;;;;;;4.95;3.10;;;;;;;;;;5073623;28;20022;-92
2021/07/26 13:33:56;;;;;;;5.70;3.15;;;;;;;;;;5079096;28;20078;-93
2021/07/26 13:36:21;;;;;;;7.07;3.83;;;;;;;;;;5079137;28;20080;-91
2021/07/26 13:38:49;;;;;;;4.28;3.10;;;;;;;;;;5075685;28;20032;-92
2021/07/26 13:41:14;;;;;;;4.53;2.90;;;;;;;;;;5076455;28;20035;-93
2021/07/26 13:43:39;;;;;;;3.20;2.90;;;;;;;;;;5092506;28;20028;-92
2021/07/26 13:46:05;;;;;;;3.53;3.22;;;;;;;;;;5073840;28;20023;-93
2021/07/26 13:48:30;;;;;;;3.33;3.03;;;;;;;;;;5081231;28;20108;-92
2021/07/26 13:50:56;;;;;;;6.95;3.70;;;;;;;;;;5080538;28;20028;-94
2021/07/26 13:53:21;;;;;;;4.80;3.40;;;;;;;;;;5080370;28;20043;-93
2021/07/26 13:55:46;;;;;;;5.10;3.58;;;;;;;;;;5076980;28;20412;-93
2021/07/26 13:58:12;;;;;;;11.73;3.83;;;;;;;;;;5078979;28;20009;-92
2021/07/26 14:00:37;;;;;;;5.60;3.08;;;;;;;;;;5089659;28;20042;-92
2021/07/26 14:03:04;;;;;;;4.28;3.33;;;;;;;;;;5078899;28;20013;-92
2021/07/26 14:05:29;;;;;;;4.63;3.15;;;;;;;;;;5080624;28;20005;-93
2021/07/26 14:07:55;;;;;;;11.32;3.40;;;;;;;;;;5080017;28;20015;-94
2021/07/26 14:10:20;;;;;;;4.03;3.00;;;;;;;;;;5078980;28;20032;-92
2021/07/26 14:12:45;;;;;;;7.97;3.17;;;;;;;;;;5080565;28;20047;-93
2021/07/26 14:15:11;;;;;;;4.88;3.10;;;;;;;;;;5079261;28;20036;-93
2021/07/26 14:17:40;;;;;;;5.05;2.97;;;;;;;;;;5080248;28;20076;-91
2021/07/26 14:20:07;;;;;;;5.30;3.30;;;;;;;;;;5077355;28;20028;-92
2021/07/26 14:22:32;;;;;;;4.03;3.20;;;;;;;;;;5080466;28;20004;-93
2021/07/26 14:24:57;;;;;;;4.38;3.38;;;;;;;;;;5083107;28;20025;-92
2021/07/26 14:27:23;;;;;;;4.28;3.20;;;;;;;;;;5082625;28;20213;-93
2021/07/26 14:29:48;;;;;;;5.80;3.00;;;;;;;;;;5079727;28;20036;-93
2021/07/26 14:32:13;;;;;;;4.53;3.25;;;;;;;;;;5084244;28;20017;-93
2021/07/26 14:34:39;;;;;;;5.97;3.03;;;;;;;;;;5084067;28;20039;-93
2021/07/26 14:37:06;;;;;;;4.65;2.88;;;;;;;;;;5094060;28;20017;-92
2021/07/26 14:39:31;;;;;;;7.18;3.40;;;;;;;;;;5083086;28;20020;-93
2021/07/26 14:41:56;;;;;;;3.83;2.90;;;;;;;;;;5084496;28;20012;-91
2021/07/26 14:44:22;;;;;;;6.53;3.92;;;;;;;;;;5080301;28;20028;-93